Time;durP1;ratioP1;P1;durP2;ratioP2;P2;SDS_P1;SDS_P2;PMS_P1;PMS_P2;Temp;Humidity;BMP_temperature;BMP_pressure;BME280_temperature;BME280_humidity;BME280_pressure;Samples;Min_cycle;Max_cycle;Signal;HPM_P1;HPM_P2
2023/11/30 19:19:17;;;;;;;19.00;11.10;;;;;;;;;;5055337;28;20468;-80
2023/11/30 19:21:44;;;;;;;26.05;13.75;;;;;;;;;;5035282;28;20337;-81
2023/11/30 19:24:11;;;;;;;26.73;14.52;;;;;;;;;;5036046;28;20045;-81
2023/11/30 19:26:42;;;;;;;20.75;13.30;;;;;;;;;;5034841;28;20041;-84
2023/11/30 19:29:13;;;;;;;22.00;12.57;;;;;;;;;;5047473;28;20548;-81
2023/11/30 19:31:40;;;;;;;24.70;12.55;;;;;;;;;;5038399;28;20123;-81
2023/11/30 19:34:09;;;;;;;24.40;11.82;;;;;;;;;;5055548;28;20048;-81
2023/11/30 19:36:39;;;;;;;18.95;11.82;;;;;;;;;;5060668;28;20039;-81
2023/11/30 19:39:06;;;;;;;17.02;9.95;;;;;;;;;;5037091;28;20040;-82
2023/11/30 19:41:33;;;;;;;15.68;9.68;;;;;;;;;;5038152;28;20040;-82
2023/11/30 19:44:00;;;;;;;17.25;9.77;;;;;;;;;;5037542;28;20055;-80
2023/11/30 19:46:28;;;;;;;12.43;9.27;;;;;;;;;;5036291;28;20055;-81
2023/11/30 19:48:55;;;;;;;19.50;12.15;;;;;;;;;;5038359;28;20063;-82
2023/11/30 19:51:22;;;;;;;14.93;9.52;;;;;;;;;;5038087;28;20552;-82
2023/11/30 19:53:49;;;;;;;19.23;12.90;;;;;;;;;;5038812;28;20086;-80
2023/11/30 19:56:23;;;;;;;19.95;15.70;;;;;;;;;;5033839;28;20451;-91
2023/11/30 19:59:06;;;;;;;30.40;18.15;;;;;;;;;;5038649;28;20618;-81
2023/11/30 20:01:33;;;;;;;22.23;15.85;;;;;;;;;;5038706;28;20721;-83
2023/11/30 20:04:00;;;;;;;19.92;13.70;;;;;;;;;;5035288;28;20053;-82
2023/11/30 20:06:27;;;;;;;18.45;11.15;;;;;;;;;;5033453;28;20526;-82
2023/11/30 20:08:55;;;;;;;20.38;14.60;;;;;;;;;;5036510;28;20040;-83
2023/11/30 20:11:22;;;;;;;10.40;6.40;;;;;;;;;;5033731;28;20487;-82
2023/11/30 20:13:49;;;;;;;14.98;10.45;;;;;;;;;;5034591;28;20515;-82
2023/11/30 20:16:16;;;;;;;16.63;14.02;;;;;;;;;;5036572;28;20566;-82
2023/11/30 20:18:43;;;;;;;19.70;14.50;;;;;;;;;;5032441;28;20038;-82
2023/11/30 20:21:20;;;;;;;22.90;15.85;;;;;;;;;;5053503;28;20123;-81
2023/11/30 20:23:48;;;;;;;19.17;12.05;;;;;;;;;;5038181;28;20041;-81
2023/11/30 20:26:17;;;;;;;22.42;12.90;;;;;;;;;;5040588;28;20044;-82
2023/11/30 20:28:45;;;;;;;20.17;15.70;;;;;;;;;;5052741;28;20055;-83
2023/11/30 20:31:13;;;;;;;15.85;11.93;;;;;;;;;;5060463;28;20135;-82
2023/11/30 20:33:40;;;;;;;17.60;8.95;;;;;;;;;;5036944;28;20040;-83
2023/11/30 20:36:08;;;;;;;12.38;10.00;;;;;;;;;;5036343;28;20132;-82
2023/11/30 20:38:35;;;;;;;13.40;9.52;;;;;;;;;;5033459;28;20132;-82
2023/11/30 20:41:06;;;;;;;29.00;25.85;;;;;;;;;;5048839;28;20040;-82
2023/11/30 20:43:33;;;;;;;20.67;18.33;;;;;;;;;;5037358;28;20052;-83
2023/11/30 20:46:00;;;;;;;10.38;8.20;;;;;;;;;;5053564;28;20067;-83
2023/11/30 20:48:27;;;;;;;11.80;8.50;;;;;;;;;;5032512;28;20110;-83
2023/11/30 20:50:54;;;;;;;14.35;10.13;;;;;;;;;;5033279;28;20036;-83
2023/11/30 20:53:21;;;;;;;17.40;8.38;;;;;;;;;;5052696;28;20479;-83
2023/11/30 20:55:48;;;;;;;10.98;7.63;;;;;;;;;;5036506;28;20029;-83
2023/11/30 20:58:15;;;;;;;13.40;8.68;;;;;;;;;;5032108;28;20037;-83
2023/11/30 21:00:42;;;;;;;12.15;8.60;;;;;;;;;;5050147;28;20054;-83
2023/11/30 21:03:09;;;;;;;16.05;9.63;;;;;;;;;;5036340;28;20051;-82
2023/11/30 21:05:37;;;;;;;16.92;10.60;;;;;;;;;;5036506;28;20044;-83
2023/11/30 21:08:04;;;;;;;12.90;11.00;;;;;;;;;;5034400;28;20091;-82
2023/11/30 21:10:32;;;;;;;17.25;11.73;;;;;;;;;;5036260;28;20048;-84
2023/11/30 21:12:59;;;;;;;17.25;12.05;;;;;;;;;;5036510;28;20050;-84
2023/11/30 21:15:28;;;;;;;18.02;12.63;;;;;;;;;;5034878;28;20041;-83
2023/11/30 21:17:55;;;;;;;18.85;12.85;;;;;;;;;;5045130;28;20047;-83
2023/11/30 21:20:22;;;;;;;17.30;14.70;;;;;;;;;;5033809;28;20075;-84
2023/11/30 21:22:49;;;;;;;23.15;14.65;;;;;;;;;;5027749;28;20051;-83
2023/11/30 21:25:17;;;;;;;25.00;15.85;;;;;;;;;;5034696;28;20053;-83
2023/11/30 21:27:45;;;;;;;21.77;14.70;;;;;;;;;;5036139;28;20041;-83
2023/11/30 21:30:12;;;;;;;22.92;14.20;;;;;;;;;;5032555;28;20459;-83
2023/11/30 21:32:39;;;;;;;29.50;16.33;;;;;;;;;;5032343;28;20427;-83
2023/11/30 21:35:06;;;;;;;25.15;15.73;;;;;;;;;;5029142;28;20041;-82
2023/11/30 21:37:33;;;;;;;27.58;17.45;;;;;;;;;;5035863;28;20410;-83
2023/11/30 21:40:00;;;;;;;28.35;17.88;;;;;;;;;;5033391;28;20041;-84
2023/11/30 21:42:27;;;;;;;28.08;18.00;;;;;;;;;;5034605;28;20102;-83
2023/11/30 21:44:54;;;;;;;28.27;17.98;;;;;;;;;;5026112;28;20136;-83
2023/11/30 21:47:22;;;;;;;26.85;18.45;;;;;;;;;;5032712;28;20071;-84
2023/11/30 21:49:49;;;;;;;33.85;18.83;;;;;;;;;;5039528;28;20068;-84
2023/11/30 21:52:16;;;;;;;29.20;18.75;;;;;;;;;;5034946;28;20044;-83
2023/11/30 21:54:44;;;;;;;32.63;18.40;;;;;;;;;;5033676;28;20454;-83
2023/11/30 21:57:11;;;;;;;29.70;18.73;;;;;;;;;;5031691;28;20457;-84
2023/11/30 21:59:38;;;;;;;28.45;18.88;;;;;;;;;;5035277;28;20058;-84
2023/11/30 22:02:05;;;;;;;33.05;19.77;;;;;;;;;;5026589;28;20087;-85
